Hagaman, New York
Current Conditions -  °F | °C
As of 3:35 AM on Sunday 23 Nov 2014 (Local Time) from KNY0 Reporting Station
Overcast Overcast  
Wind Chill: 32°   Ceiling: 2600
Heat Index: 36°   Visibility: 7mi
Dew Point: 35°   Wind: 5mph
Humidity: 93%   Direction: 210°SSW
Pressure: 30.05"   Gusts: NA
Location:  42.97°N, 74.15°W
Report Text: KNY0 230835Z AUTO 21004KT 7SM OVC026 02/01 A3005 RMK AO2 T00240014
Loading
Personal Weather Stations






























Interactive Weather Map New forecast layout! Learn more

10-Day Weather Forecast

Advertisements
Track Severe Weather on mobile